Terminal Aerodrome Forecast
Issued by NWS Duluth, MN

Home | Current Version | Previous Version | Text Only | Print | Product List | Glossary On
Versions: 1 2 3 4 5 6 7 8 9 10 11 12 13 14 15 16 17 18 19 20 21 22 23 24 25
000
FTUS43 KDLH 220400 AAA
TAFINL
TAF AMD
KINL 220402Z 2204/2224 VRB05KT P6SM VCTS BKN025 OVC050CB
      TEMPO 2204/2208 VRB40KT 1SM +TSRA BKN007 OVC012CB
     FM220800 02010KT 4SM -RA BKN005 OVC012
     FM221500 36012G22KT P6SM SCT012 BKN025
     FM222000 33015KT P6SM BKN040=

USA.gov is the U.S. government's official web portal to all federal, state and local government web resources and services.